sensor_id;sensor_type;location;lat;lon;timestamp;pressure;altitude;pressure_sealevel;temperature;humidity
13033;BME280;6583;42.632;23.298;2023-03-16T00:01:41;70807.63;;;-146.40;95.52
13033;BME280;6583;42.632;23.298;2023-03-16T00:04:08;70809.66;;;-146.40;95.43
13033;BME280;6583;42.632;23.298;2023-03-16T00:06:34;70797.53;;;-146.40;95.74
13033;BME280;6583;42.632;23.298;2023-03-16T00:09:02;70803.59;;;-146.40;95.87
13033;BME280;6583;42.632;23.298;2023-03-16T00:11:29;70801.56;;;-146.40;96.15
13033;BME280;6583;42.632;23.298;2023-03-16T00:13:56;70801.56;;;-146.40;95.90
13033;BME280;6583;42.632;23.298;2023-03-16T00:16:23;70827.88;;;-146.40;95.93
13033;BME280;6583;42.632;23.298;2023-03-16T00:18:51;70813.72;;;-146.40;96.71
13033;BME280;6583;42.632;23.298;2023-03-16T00:21:17;70835.97;;;-146.40;96.70
13033;BME280;6583;42.632;23.298;2023-03-16T00:23:44;70831.91;;;-146.40;96.87
13033;BME280;6583;42.632;23.298;2023-03-16T00:26:11;70833.94;;;-146.40;96.43
13033;BME280;6583;42.632;23.298;2023-03-16T00:28:38;70866.31;;;-146.40;96.21
13033;BME280;6583;42.632;23.298;2023-03-16T00:31:08;70842.03;;;-146.40;96.50
13033;BME280;6583;42.632;23.298;2023-03-16T00:33:39;70850.13;;;-146.40;96.17
13033;BME280;6583;42.632;23.298;2023-03-16T00:36:08;70856.19;;;-146.40;96.51
13033;BME280;6583;42.632;23.298;2023-03-16T00:38:37;70868.34;;;-146.40;97.09
13033;BME280;6583;42.632;23.298;2023-03-16T00:41:06;70878.47;;;-146.40;97.50
13033;BME280;6583;42.632;23.298;2023-03-16T00:43:35;70876.44;;;-146.40;97.69
13033;BME280;6583;42.632;23.298;2023-03-16T00:46:06;70878.47;;;-146.40;97.79
13033;BME280;6583;42.632;23.298;2023-03-16T00:48:33;70878.47;;;-146.40;97.54
13033;BME280;6583;42.632;23.298;2023-03-16T00:51:00;70880.47;;;-146.40;97.17
13033;BME280;6583;42.632;23.298;2023-03-16T00:53:30;70878.47;;;-146.40;96.84
13033;BME280;6583;42.632;23.298;2023-03-16T00:55:57;70896.66;;;-146.40;96.48
13033;BME280;6583;42.632;23.298;2023-03-16T00:58:24;70882.50;;;-146.40;97.25
13033;BME280;6583;42.632;23.298;2023-03-16T01:00:51;70880.47;;;-146.40;97.05
13033;BME280;6583;42.632;23.298;2023-03-16T01:03:19;70878.47;;;-146.40;97.01
13033;BME280;6583;42.632;23.298;2023-03-16T01:05:45;70874.41;;;-146.40;97.06
13033;BME280;6583;42.632;23.298;2023-03-16T01:08:13;70876.44;;;-146.40;96.97
13033;BME280;6583;42.632;23.298;2023-03-16T01:10:41;70880.47;;;-146.40;96.43
13033;BME280;6583;42.632;23.298;2023-03-16T01:13:09;70884.53;;;-146.40;95.76
13033;BME280;6583;42.632;23.298;2023-03-16T01:15:37;70890.59;;;-146.40;95.45
13033;BME280;6583;42.632;23.298;2023-03-16T01:18:04;70882.50;;;-146.40;95.40
13033;BME280;6583;42.632;23.298;2023-03-16T01:20:31;70894.66;;;-146.40;95.29
13033;BME280;6583;42.632;23.298;2023-03-16T01:22:58;70888.56;;;-146.40;95.22
13033;BME280;6583;42.632;23.298;2023-03-16T01:25:26;70890.59;;;-146.40;95.08
13033;BME280;6583;42.632;23.298;2023-03-16T01:27:54;70908.81;;;-146.40;95.09
13033;BME280;6583;42.632;23.298;2023-03-16T01:30:21;70902.75;;;-146.40;95.45
13033;BME280;6583;42.632;23.298;2023-03-16T01:32:47;70910.84;;;-146.40;95.98
13033;BME280;6583;42.632;23.298;2023-03-16T01:35:14;70908.81;;;-146.40;95.95
13033;BME280;6583;42.632;23.298;2023-03-16T01:37:41;70912.84;;;-146.40;96.24
13033;BME280;6583;42.632;23.298;2023-03-16T01:40:09;70910.84;;;-146.40;96.85
13033;BME280;6583;42.632;23.298;2023-03-16T01:42:46;70904.75;;;-146.40;97.08
13033;BME280;6583;42.632;23.298;2023-03-16T01:48:25;70918.94;;;-146.40;96.55
13033;BME280;6583;42.632;23.298;2023-03-16T01:50:52;70914.88;;;-146.40;96.96
13033;BME280;6583;42.632;23.298;2023-03-16T01:53:22;70925.00;;;-146.40;96.53
13033;BME280;6583;42.632;23.298;2023-03-16T01:55:50;70927.03;;;-146.40;96.55
13033;BME280;6583;42.632;23.298;2023-03-16T01:58:19;70931.06;;;-146.40;96.75
13033;BME280;6583;42.632;23.298;2023-03-16T02:00:46;70927.03;;;-146.40;97.45
13033;BME280;6583;42.632;23.298;2023-03-16T02:03:15;70939.16;;;-146.40;97.54
13033;BME280;6583;42.632;23.298;2023-03-16T02:05:47;70935.13;;;-146.40;97.66
13033;BME280;6583;42.632;23.298;2023-03-16T02:08:17;70939.16;;;-146.40;96.97
13033;BME280;6583;42.632;23.298;2023-03-16T02:10:44;70935.13;;;-146.40;96.68
13033;BME280;6583;42.632;23.298;2023-03-16T02:13:11;70943.22;;;-146.40;96.27
13033;BME280;6583;42.632;23.298;2023-03-16T02:15:38;70945.22;;;-146.40;95.72
13033;BME280;6583;42.632;23.298;2023-03-16T02:18:06;70951.31;;;-146.40;95.09
13033;BME280;6583;42.632;23.298;2023-03-16T02:20:38;70955.34;;;-146.40;95.48
13033;BME280;6583;42.632;23.298;2023-03-16T02:23:11;70959.41;;;-146.40;95.40
13033;BME280;6583;42.632;23.298;2023-03-16T02:25:46;70971.53;;;-146.40;94.42
13033;BME280;6583;42.632;23.298;2023-03-16T02:28:20;70967.50;;;-146.40;94.52
13033;BME280;6583;42.632;23.298;2023-03-16T02:30:52;70987.72;;;-146.40;94.52
13033;BME280;6583;42.632;23.298;2023-03-16T02:33:19;70981.66;;;-146.40;95.26
13033;BME280;6583;42.632;23.298;2023-03-16T02:35:46;70981.66;;;-146.40;95.38
13033;BME280;6583;42.632;23.298;2023-03-16T02:38:13;70975.59;;;-146.40;95.68
13033;BME280;6583;42.632;23.298;2023-03-16T02:40:40;70987.72;;;-146.40;94.70
13033;BME280;6583;42.632;23.298;2023-03-16T02:43:10;70975.59;;;-146.40;95.00
13033;BME280;6583;42.632;23.298;2023-03-16T02:45:41;70987.72;;;-146.40;94.63
13033;BME280;6583;42.632;23.298;2023-03-16T02:48:13;70981.66;;;-146.40;95.21
13033;BME280;6583;42.632;23.298;2023-03-16T02:50:46;70969.50;;;-146.40;95.55
13033;BME280;6583;42.632;23.298;2023-03-16T02:53:15;70981.66;;;-146.40;95.01
13033;BME280;6583;42.632;23.298;2023-03-16T02:55:42;70979.63;;;-146.40;94.30
13033;BME280;6583;42.632;23.298;2023-03-16T02:58:10;70999.88;;;-146.40;94.11
13033;BME280;6583;42.632;23.298;2023-03-16T03:00:37;71009.97;;;-146.40;93.26
13033;BME280;6583;42.632;23.298;2023-03-16T03:03:04;70995.81;;;-146.40;93.85
13033;BME280;6583;42.632;23.298;2023-03-16T03:05:34;71012.00;;;-146.40;93.73
13033;BME280;6583;42.632;23.298;2023-03-16T03:08:01;71014.03;;;-146.40;93.56
13033;BME280;6583;42.632;23.298;2023-03-16T03:10:28;71020.09;;;-146.40;93.29
13033;BME280;6583;42.632;23.298;2023-03-16T03:12:55;71020.09;;;-146.40;94.01
13033;BME280;6583;42.632;23.298;2023-03-16T03:15:22;71022.13;;;-146.40;94.11
13033;BME280;6583;42.632;23.298;2023-03-16T03:17:49;71024.16;;;-146.40;93.08
13033;BME280;6583;42.632;23.298;2023-03-16T03:20:15;71032.25;;;-146.40;93.02
13033;BME280;6583;42.632;23.298;2023-03-16T03:22:46;71036.28;;;-146.40;92.34
13033;BME280;6583;42.632;23.298;2023-03-16T03:25:15;71052.47;;;-146.40;92.11
13033;BME280;6583;42.632;23.298;2023-03-16T03:27:43;71048.44;;;-146.40;93.17
13033;BME280;6583;42.632;23.298;2023-03-16T03:30:12;71050.44;;;-146.40;94.06
13033;BME280;6583;42.632;23.298;2023-03-16T03:32:40;71048.44;;;-146.40;94.38
13033;BME280;6583;42.632;23.298;2023-03-16T03:35:10;71052.47;;;-146.40;93.65
13033;BME280;6583;42.632;23.298;2023-03-16T03:37:37;71058.53;;;-146.40;93.00
13033;BME280;6583;42.632;23.298;2023-03-16T03:40:09;71056.53;;;-146.40;93.59
13033;BME280;6583;42.632;23.298;2023-03-16T03:42:36;71056.53;;;-146.40;93.82
13033;BME280;6583;42.632;23.298;2023-03-16T03:45:04;71076.75;;;-146.40;92.54
13033;BME280;6583;42.632;23.298;2023-03-16T03:47:30;71074.72;;;-146.40;92.16
13033;BME280;6583;42.632;23.298;2023-03-16T03:49:57;71084.84;;;-146.40;92.69
13033;BME280;6583;42.632;23.298;2023-03-16T03:52:24;71097.00;;;-146.40;92.52
13033;BME280;6583;42.632;23.298;2023-03-16T03:54:50;71090.91;;;-146.40;93.37
13033;BME280;6583;42.632;23.298;2023-03-16T03:57:18;71088.91;;;-146.40;93.22
13033;BME280;6583;42.632;23.298;2023-03-16T03:59:45;71109.13;;;-146.40;92.33
13033;BME280;6583;42.632;23.298;2023-03-16T04:02:12;71097.00;;;-146.40;91.15
13033;BME280;6583;42.632;23.298;2023-03-16T04:04:39;71099.00;;;-146.40;91.50
13033;BME280;6583;42.632;23.298;2023-03-16T04:07:06;71094.97;;;-146.40;92.15
13033;BME280;6583;42.632;23.298;2023-03-16T04:09:33;71097.00;;;-146.40;91.62
13033;BME280;6583;42.632;23.298;2023-03-16T04:12:00;71097.00;;;-146.40;91.77
13033;BME280;6583;42.632;23.298;2023-03-16T04:14:29;71105.09;;;-146.40;92.03
13033;BME280;6583;42.632;23.298;2023-03-16T04:16:56;71109.13;;;-146.40;92.04
13033;BME280;6583;42.632;23.298;2023-03-16T04:19:23;71117.22;;;-146.40;91.53
13033;BME280;6583;42.632;23.298;2023-03-16T04:21:50;71121.28;;;-146.40;92.30
13033;BME280;6583;42.632;23.298;2023-03-16T04:24:18;71107.13;;;-146.40;92.72
13033;BME280;6583;42.632;23.298;2023-03-16T04:26:47;71125.31;;;-146.40;91.63
13033;BME280;6583;42.632;23.298;2023-03-16T04:29:14;71129.38;;;-146.40;91.65
13033;BME280;6583;42.632;23.298;2023-03-16T04:31:44;71129.38;;;-146.40;92.00
13033;BME280;6583;42.632;23.298;2023-03-16T04:34:11;71127.34;;;-146.40;92.11
13033;BME280;6583;42.632;23.298;2023-03-16T04:36:38;71139.50;;;-146.40;91.21
13033;BME280;6583;42.632;23.298;2023-03-16T04:39:06;71133.41;;;-146.40;90.51
13033;BME280;6583;42.632;23.298;2023-03-16T04:41:33;71137.47;;;-146.40;90.96
13033;BME280;6583;42.632;23.298;2023-03-16T04:43:59;71135.44;;;-146.40;91.22
13033;BME280;6583;42.632;23.298;2023-03-16T04:46:26;71145.56;;;-146.40;91.47
13033;BME280;6583;42.632;23.298;2023-03-16T04:48:55;71149.59;;;-146.40;91.85
13033;BME280;6583;42.632;23.298;2023-03-16T04:51:23;71155.69;;;-146.40;91.43
13033;BME280;6583;42.632;23.298;2023-03-16T04:53:49;71157.69;;;-146.40;90.96
13033;BME280;6583;42.632;23.298;2023-03-16T04:56:16;71157.69;;;-146.40;90.67
13033;BME280;6583;42.632;23.298;2023-03-16T04:58:43;71159.72;;;-146.40;91.32
13033;BME280;6583;42.632;23.298;2023-03-16T05:01:10;71155.69;;;-146.40;91.22
13033;BME280;6583;42.632;23.298;2023-03-16T05:03:37;71165.78;;;-146.40;91.04
13033;BME280;6583;42.632;23.298;2023-03-16T05:06:06;71159.72;;;-146.40;90.14
13033;BME280;6583;42.632;23.298;2023-03-16T05:08:32;71161.75;;;-146.40;90.68
13033;BME280;6583;42.632;23.298;2023-03-16T05:10:59;71165.78;;;-146.40;90.55
13033;BME280;6583;42.632;23.298;2023-03-16T05:13:26;71179.97;;;-146.40;90.17
13033;BME280;6583;42.632;23.298;2023-03-16T05:15:53;71184.00;;;-146.40;88.93
13033;BME280;6583;42.632;23.298;2023-03-16T05:18:19;71161.75;;;-146.40;90.29
13033;BME280;6583;42.632;23.298;2023-03-16T05:20:48;71171.88;;;-146.40;89.03
13033;BME280;6583;42.632;23.298;2023-03-16T05:23:17;71169.84;;;-146.40;89.81
13033;BME280;6583;42.632;23.298;2023-03-16T05:25:45;71169.84;;;-146.40;90.66
13033;BME280;6583;42.632;23.298;2023-03-16T05:28:11;71167.81;;;-146.40;91.31
13033;BME280;6583;42.632;23.298;2023-03-16T05:30:39;71165.78;;;-146.40;91.09
13033;BME280;6583;42.632;23.298;2023-03-16T05:33:06;71173.88;;;-146.40;90.37
13033;BME280;6583;42.632;23.298;2023-03-16T05:35:33;71181.97;;;-146.40;90.80
13033;BME280;6583;42.632;23.298;2023-03-16T05:38:00;71177.94;;;-146.40;90.32
13033;BME280;6583;42.632;23.298;2023-03-16T05:40:28;71179.97;;;-146.40;91.29
13033;BME280;6583;42.632;23.298;2023-03-16T05:42:55;71169.84;;;-146.40;91.35
13033;BME280;6583;42.632;23.298;2023-03-16T05:45:24;71181.97;;;-146.40;91.12
13033;BME280;6583;42.632;23.298;2023-03-16T05:47:51;71186.03;;;-146.40;90.52
13033;BME280;6583;42.632;23.298;2023-03-16T05:50:18;71194.13;;;-146.40;90.19
13033;BME280;6583;42.632;23.298;2023-03-16T05:52:45;71202.22;;;-146.40;89.82
13033;BME280;6583;42.632;23.298;2023-03-16T05:55:14;71202.22;;;-146.40;89.37
13033;BME280;6583;42.632;23.298;2023-03-16T05:57:42;71202.22;;;-146.40;90.23
13033;BME280;6583;42.632;23.298;2023-03-16T06:00:10;71206.25;;;-146.40;90.62
13033;BME280;6583;42.632;23.298;2023-03-16T06:02:40;71210.31;;;-146.40;90.50
13033;BME280;6583;42.632;23.298;2023-03-16T06:05:07;71202.22;;;-146.40;90.63
13033;BME280;6583;42.632;23.298;2023-03-16T06:07:34;71184.00;;;-146.40;90.93
13033;BME280;6583;42.632;23.298;2023-03-16T06:10:01;71206.25;;;-146.40;89.85
13033;BME280;6583;42.632;23.298;2023-03-16T06:12:29;71204.25;;;-146.40;89.53
13033;BME280;6583;42.632;23.298;2023-03-16T06:14:56;71218.41;;;-146.40;89.70
13033;BME280;6583;42.632;23.298;2023-03-16T06:17:23;71210.31;;;-146.40;90.25
13033;BME280;6583;42.632;23.298;2023-03-16T06:19:50;71224.47;;;-146.40;89.87
13033;BME280;6583;42.632;23.298;2023-03-16T06:22:17;71222.44;;;-146.40;90.00
13033;BME280;6583;42.632;23.298;2023-03-16T06:24:43;71222.44;;;-146.40;90.51
13033;BME280;6583;42.632;23.298;2023-03-16T06:27:11;71228.53;;;-146.40;90.88
13033;BME280;6583;42.632;23.298;2023-03-16T06:29:37;71232.56;;;-146.40;90.32
13033;BME280;6583;42.632;23.298;2023-03-16T06:32:05;71234.59;;;-146.40;90.28
13033;BME280;6583;42.632;23.298;2023-03-16T06:34:32;71252.81;;;-146.40;89.42
13033;BME280;6583;42.632;23.298;2023-03-16T06:37:01;71254.84;;;-146.40;89.84
13033;BME280;6583;42.632;23.298;2023-03-16T06:39:29;71244.72;;;-146.40;90.50
13033;BME280;6583;42.632;23.298;2023-03-16T06:41:56;71250.78;;;-146.40;90.91
13033;BME280;6583;42.632;23.298;2023-03-16T06:44:23;71246.75;;;-146.40;90.17
13033;BME280;6583;42.632;23.298;2023-03-16T06:46:50;71275.06;;;-146.40;89.75
13033;BME280;6583;42.632;23.298;2023-03-16T06:49:18;71279.13;;;-146.40;89.22
13033;BME280;6583;42.632;23.298;2023-03-16T06:51:44;71258.88;;;-146.40;90.91
13033;BME280;6583;42.632;23.298;2023-03-16T06:54:11;71254.84;;;-146.40;91.17
13033;BME280;6583;42.632;23.298;2023-03-16T06:56:37;71264.94;;;-146.40;90.56
13033;BME280;6583;42.632;23.298;2023-03-16T06:59:04;71250.78;;;-146.40;89.96
13033;BME280;6583;42.632;23.298;2023-03-16T07:01:31;71264.94;;;-146.40;89.24
13033;BME280;6583;42.632;23.298;2023-03-16T07:03:57;71260.91;;;-146.40;88.98
13033;BME280;6583;42.632;23.298;2023-03-16T07:06:25;71262.94;;;-146.40;88.72
13033;BME280;6583;42.632;23.298;2023-03-16T07:08:52;71256.84;;;-146.40;88.99
13033;BME280;6583;42.632;23.298;2023-03-16T07:11:19;71256.84;;;-146.40;88.35
13033;BME280;6583;42.632;23.298;2023-03-16T07:13:45;71242.69;;;-146.40;89.02
13033;BME280;6583;42.632;23.298;2023-03-16T07:16:12;71246.75;;;-146.40;88.42
13033;BME280;6583;42.632;23.298;2023-03-16T07:18:39;71250.78;;;-146.40;86.74
13033;BME280;6583;42.632;23.298;2023-03-16T07:21:08;71250.78;;;-146.40;87.71
13033;BME280;6583;42.632;23.298;2023-03-16T07:23:36;71244.72;;;-146.40;87.59
13033;BME280;6583;42.632;23.298;2023-03-16T07:26:05;71266.97;;;-146.40;86.26
13033;BME280;6583;42.632;23.298;2023-03-16T07:28:32;71262.94;;;-146.40;86.27
13033;BME280;6583;42.632;23.298;2023-03-16T07:30:59;71262.94;;;-146.40;87.68
13033;BME280;6583;42.632;23.298;2023-03-16T07:33:26;71277.09;;;-146.40;87.44
13033;BME280;6583;42.632;23.298;2023-03-16T07:35:52;71266.97;;;-146.40;88.00
13033;BME280;6583;42.632;23.298;2023-03-16T07:38:19;71277.09;;;-146.40;88.06
13033;BME280;6583;42.632;23.298;2023-03-16T07:40:47;71277.09;;;-146.40;88.25
13033;BME280;6583;42.632;23.298;2023-03-16T07:43:16;71262.94;;;-146.40;88.99
13033;BME280;6583;42.632;23.298;2023-03-16T07:45:46;71258.88;;;-146.40;88.49
13033;BME280;6583;42.632;23.298;2023-03-16T07:48:13;71262.94;;;-146.40;87.50
13033;BME280;6583;42.632;23.298;2023-03-16T07:50:40;71273.03;;;-146.40;85.99
13033;BME280;6583;42.632;23.298;2023-03-16T07:53:06;71279.13;;;-146.40;85.28
13033;BME280;6583;42.632;23.298;2023-03-16T07:55:33;71254.84;;;-146.40;86.35
13033;BME280;6583;42.632;23.298;2023-03-16T07:58:05;71250.78;;;-146.40;87.07
13033;BME280;6583;42.632;23.298;2023-03-16T08:00:32;71246.75;;;-146.40;85.23
13033;BME280;6583;42.632;23.298;2023-03-16T08:02:58;71244.72;;;-146.40;85.73
13033;BME280;6583;42.632;23.298;2023-03-16T08:05:26;71234.59;;;-146.40;86.36
13033;BME280;6583;42.632;23.298;2023-03-16T08:07:53;71222.44;;;-146.40;86.03
13033;BME280;6583;42.632;23.298;2023-03-16T08:10:21;71216.38;;;-146.40;85.97
13033;BME280;6583;42.632;23.298;2023-03-16T08:12:48;71204.25;;;-146.40;85.88
13033;BME280;6583;42.632;23.298;2023-03-16T08:15:17;71210.31;;;-146.40;85.64
13033;BME280;6583;42.632;23.298;2023-03-16T08:17:44;71206.25;;;-146.40;85.24
13033;BME280;6583;42.632;23.298;2023-03-16T08:20:11;71206.25;;;-146.40;85.70
13033;BME280;6583;42.632;23.298;2023-03-16T08:22:39;71214.34;;;-146.40;84.11
13033;BME280;6583;42.632;23.298;2023-03-16T08:25:08;71226.50;;;-146.40;83.49
13033;BME280;6583;42.632;23.298;2023-03-16T08:27:35;71222.44;;;-146.40;84.92
13033;BME280;6583;42.632;23.298;2023-03-16T08:30:03;71218.41;;;-146.40;85.70
13033;BME280;6583;42.632;23.298;2023-03-16T08:32:32;71202.22;;;-146.40;85.19
13033;BME280;6583;42.632;23.298;2023-03-16T08:34:59;71202.22;;;-146.40;84.93
13033;BME280;6583;42.632;23.298;2023-03-16T08:37:26;71236.63;;;-146.40;83.04
13033;BME280;6583;42.632;23.298;2023-03-16T08:39:52;71212.34;;;-146.40;84.21
13033;BME280;6583;42.632;23.298;2023-03-16T08:42:19;71194.13;;;-146.40;85.46
13033;BME280;6583;42.632;23.298;2023-03-16T08:44:46;71204.25;;;-146.40;84.33
13033;BME280;6583;42.632;23.298;2023-03-16T08:47:13;71198.16;;;-146.40;82.97
13033;BME280;6583;42.632;23.298;2023-03-16T08:49:41;71204.25;;;-146.40;82.03
13033;BME280;6583;42.632;23.298;2023-03-16T08:52:09;71206.25;;;-146.40;82.02
13033;BME280;6583;42.632;23.298;2023-03-16T08:54:37;71198.16;;;-146.40;82.96
13033;BME280;6583;42.632;23.298;2023-03-16T08:57:04;71177.94;;;-146.40;83.16
13033;BME280;6583;42.632;23.298;2023-03-16T08:59:30;71186.03;;;-146.40;82.52
13033;BME280;6583;42.632;23.298;2023-03-16T09:01:57;71181.97;;;-146.40;80.99
13033;BME280;6583;42.632;23.298;2023-03-16T09:04:24;71165.78;;;-146.40;83.36
13033;BME280;6583;42.632;23.298;2023-03-16T09:06:53;71169.84;;;-146.40;80.56
13033;BME280;6583;42.632;23.298;2023-03-16T09:09:20;71167.81;;;-146.40;80.30
13033;BME280;6583;42.632;23.298;2023-03-16T09:11:47;71181.97;;;-146.40;79.57
13033;BME280;6583;42.632;23.298;2023-03-16T09:14:14;71169.84;;;-146.40;81.23
13033;BME280;6583;42.632;23.298;2023-03-16T09:16:40;71165.78;;;-146.40;81.42
13033;BME280;6583;42.632;23.298;2023-03-16T09:19:08;71177.94;;;-146.40;80.65
13033;BME280;6583;42.632;23.298;2023-03-16T09:21:36;71198.16;;;-146.40;78.21
13033;BME280;6583;42.632;23.298;2023-03-16T09:24:04;71218.41;;;-146.40;76.75
13033;BME280;6583;42.632;23.298;2023-03-16T09:26:32;71190.06;;;-146.40;79.80
13033;BME280;6583;42.632;23.298;2023-03-16T09:28:59;71179.97;;;-146.40;80.62
13033;BME280;6583;42.632;23.298;2023-03-16T09:31:26;71181.97;;;-146.40;79.87
13033;BME280;6583;42.632;23.298;2023-03-16T09:33:53;71175.91;;;-146.40;79.50
13033;BME280;6583;42.632;23.298;2023-03-16T09:36:19;71165.78;;;-146.40;80.71
13033;BME280;6583;42.632;23.298;2023-03-16T09:38:46;71169.84;;;-146.40;80.87
13033;BME280;6583;42.632;23.298;2023-03-16T09:41:30;71181.97;;;-146.40;80.37
13033;BME280;6583;42.632;23.298;2023-03-16T09:44:08;71202.22;;;-146.40;79.99
13033;BME280;6583;42.632;23.298;2023-03-16T09:46:39;71198.16;;;-146.40;81.36
13033;BME280;6583;42.632;23.298;2023-03-16T09:49:09;71192.09;;;-146.40;81.39
13033;BME280;6583;42.632;23.298;2023-03-16T09:51:41;71194.13;;;-146.40;80.69
13033;BME280;6583;42.632;23.298;2023-03-16T09:54:17;71186.03;;;-146.40;82.55
13033;BME280;6583;42.632;23.298;2023-03-16T09:56:47;71202.22;;;-146.40;82.82
13033;BME280;6583;42.632;23.298;2023-03-16T09:59:16;71198.16;;;-146.40;84.68
13033;BME280;6583;42.632;23.298;2023-03-16T10:01:54;71184.00;;;-146.40;85.04
13033;BME280;6583;42.632;23.298;2023-03-16T10:04:35;71206.25;;;-146.40;84.72
13033;BME280;6583;42.632;23.298;2023-03-16T10:07:15;71188.06;;;-146.40;84.62
13033;BME280;6583;42.632;23.298;2023-03-16T10:09:51;71206.25;;;-146.40;82.79
13033;BME280;6583;42.632;23.298;2023-03-16T10:12:21;71226.50;;;-146.40;82.13
13033;BME280;6583;42.632;23.298;2023-03-16T10:14:55;71210.31;;;-146.40;82.44
13033;BME280;6583;42.632;23.298;2023-03-16T10:17:25;71214.34;;;-146.40;81.91
13033;BME280;6583;42.632;23.298;2023-03-16T10:19:56;71216.38;;;-146.40;80.89
13033;BME280;6583;42.632;23.298;2023-03-16T10:22:26;71200.19;;;-146.40;81.85
13033;BME280;6583;42.632;23.298;2023-03-16T10:25:01;71206.25;;;-146.40;80.87
13033;BME280;6583;42.632;23.298;2023-03-16T10:27:34;71202.22;;;-146.40;82.03
13033;BME280;6583;42.632;23.298;2023-03-16T10:30:06;71198.16;;;-146.40;81.16
13033;BME280;6583;42.632;23.298;2023-03-16T10:32:43;71186.03;;;-146.40;81.87
13033;BME280;6583;42.632;23.298;2023-03-16T10:35:15;71181.97;;;-146.40;81.86
13033;BME280;6583;42.632;23.298;2023-03-16T10:37:45;71192.09;;;-146.40;80.08
13033;BME280;6583;42.632;23.298;2023-03-16T10:40:13;71169.84;;;-146.40;82.29
13033;BME280;6583;42.632;23.298;2023-03-16T10:42:46;71194.13;;;-146.40;80.91
13033;BME280;6583;42.632;23.298;2023-03-16T10:45:23;71169.84;;;-146.40;82.34
13033;BME280;6583;42.632;23.298;2023-03-16T10:47:51;71190.06;;;-146.40;82.58
13033;BME280;6583;42.632;23.298;2023-03-16T10:50:22;71186.03;;;-146.40;81.60
13033;BME280;6583;42.632;23.298;2023-03-16T10:52:50;71186.03;;;-146.40;81.41
13033;BME280;6583;42.632;23.298;2023-03-16T10:55:22;71171.88;;;-146.40;81.65
13033;BME280;6583;42.632;23.298;2023-03-16T10:57:51;71169.84;;;-146.40;81.62
13033;BME280;6583;42.632;23.298;2023-03-16T11:00:21;71169.84;;;-146.40;81.57
13033;BME280;6583;42.632;23.298;2023-03-16T11:02:50;71181.97;;;-146.40;81.15
13033;BME280;6583;42.632;23.298;2023-03-16T11:05:26;71167.81;;;-146.40;81.86
13033;BME280;6583;42.632;23.298;2023-03-16T11:07:58;71173.88;;;-146.40;81.91
13033;BME280;6583;42.632;23.298;2023-03-16T11:10:28;71198.16;;;-146.40;80.70
13033;BME280;6583;42.632;23.298;2023-03-16T11:13:07;71184.00;;;-146.40;81.34
13033;BME280;6583;42.632;23.298;2023-03-16T11:15:38;71181.97;;;-146.40;82.25
13033;BME280;6583;42.632;23.298;2023-03-16T11:18:08;71198.16;;;-146.40;81.21
13033;BME280;6583;42.632;23.298;2023-03-16T11:20:42;71179.97;;;-146.40;82.69
13033;BME280;6583;42.632;23.298;2023-03-16T11:23:14;71186.03;;;-146.40;82.54
13033;BME280;6583;42.632;23.298;2023-03-16T11:25:47;71179.97;;;-146.40;82.07
13033;BME280;6583;42.632;23.298;2023-03-16T11:28:25;71171.88;;;-146.40;82.45
13033;BME280;6583;42.632;23.298;2023-03-16T11:31:06;71202.22;;;-146.40;80.51
13033;BME280;6583;42.632;23.298;2023-03-16T11:33:34;71190.06;;;-146.40;81.51
13033;BME280;6583;42.632;23.298;2023-03-16T11:36:13;71171.88;;;-146.40;83.26
13033;BME280;6583;42.632;23.298;2023-03-16T11:38:48;71181.97;;;-146.40;81.33
13033;BME280;6583;42.632;23.298;2023-03-16T11:41:24;71181.97;;;-146.40;81.44
13033;BME280;6583;42.632;23.298;2023-03-16T11:43:56;71186.03;;;-146.40;81.45
13033;BME280;6583;42.632;23.298;2023-03-16T11:46:28;71198.16;;;-146.40;80.70
13033;BME280;6583;42.632;23.298;2023-03-16T11:49:09;71186.03;;;-146.40;82.00
13033;BME280;6583;42.632;23.298;2023-03-16T11:51:43;71186.03;;;-146.40;82.64
13033;BME280;6583;42.632;23.298;2023-03-16T11:54:26;71175.91;;;-146.40;83.28
13033;BME280;6583;42.632;23.298;2023-03-16T11:56:59;71181.97;;;-146.40;83.22
13033;BME280;6583;42.632;23.298;2023-03-16T11:59:49;71181.97;;;-146.40;83.98
13033;BME280;6583;42.632;23.298;2023-03-16T12:02:38;71175.91;;;-146.40;85.01
13033;BME280;6583;42.632;23.298;2023-03-16T12:05:46;71200.19;;;-146.40;81.93
13033;BME280;6583;42.632;23.298;2023-03-16T12:08:27;71202.22;;;-146.40;80.84
13033;BME280;6583;42.632;23.298;2023-03-16T12:10:58;71220.44;;;-146.40;81.88
13033;BME280;6583;42.632;23.298;2023-03-16T12:13:38;71230.56;;;-146.40;82.06
13033;BME280;6583;42.632;23.298;2023-03-16T12:16:10;71216.38;;;-146.40;85.25
13033;BME280;6583;42.632;23.298;2023-03-16T12:18:44;71222.44;;;-146.40;82.94
13033;BME280;6583;42.632;23.298;2023-03-16T12:21:14;71224.47;;;-146.40;82.97
13033;BME280;6583;42.632;23.298;2023-03-16T12:23:50;71218.41;;;-146.40;83.22
13033;BME280;6583;42.632;23.298;2023-03-16T12:26:18;71238.66;;;-146.40;81.74
13033;BME280;6583;42.632;23.298;2023-03-16T12:28:47;71254.84;;;-146.40;81.73
13033;BME280;6583;42.632;23.298;2023-03-16T12:31:18;71234.59;;;-146.40;82.50
13033;BME280;6583;42.632;23.298;2023-03-16T12:34:00;71240.66;;;-146.40;82.72
13033;BME280;6583;42.632;23.298;2023-03-16T12:36:40;71230.56;;;-146.40;83.20
13033;BME280;6583;42.632;23.298;2023-03-16T12:39:14;71236.63;;;-146.40;82.68
13033;BME280;6583;42.632;23.298;2023-03-16T12:41:53;71258.88;;;-146.40;82.02
13033;BME280;6583;42.632;23.298;2023-03-16T12:44:29;71281.13;;;-146.40;83.08
13033;BME280;6583;42.632;23.298;2023-03-16T12:47:05;71297.34;;;-146.40;83.95
13033;BME280;6583;42.632;23.298;2023-03-16T12:49:35;71305.41;;;-146.40;85.25
13033;BME280;6583;42.632;23.298;2023-03-16T12:52:04;71313.53;;;-146.40;85.76
13033;BME280;6583;42.632;23.298;2023-03-16T12:54:31;71297.34;;;-146.40;87.29